createdAt,value
2023-07-24T00:00:01.919Z,21.02
2023-07-24T00:01:03.732Z,21.02
2023-07-24T00:02:05.760Z,21.03
2023-07-24T00:03:07.708Z,21.00
2023-07-24T00:04:09.700Z,20.97
2023-07-24T00:05:11.651Z,20.94
2023-07-24T00:06:13.377Z,20.91
2023-07-24T00:07:15.105Z,20.90
2023-07-24T00:08:16.951Z,20.89
2023-07-24T00:09:18.874Z,20.89
2023-07-24T00:10:20.976Z,20.90
2023-07-24T00:11:24.433Z,20.91
2023-07-24T00:12:26.393Z,20.93
2023-07-24T00:13:28.936Z,20.94
2023-07-24T00:14:30.734Z,20.95
2023-07-24T00:15:32.686Z,20.94
2023-07-24T00:16:34.471Z,20.94
2023-07-24T00:17:36.331Z,20.94
2023-07-24T00:18:38.059Z,20.95
2023-07-24T00:19:39.803Z,20.92
2023-07-24T00:20:41.594Z,20.93
2023-07-24T00:21:43.445Z,20.96
2023-07-24T00:22:45.314Z,20.95
2023-07-24T00:23:47.127Z,20.94
2023-07-24T00:24:48.945Z,20.93
2023-07-24T00:25:51.044Z,20.90
2023-07-24T00:26:52.860Z,20.88
2023-07-24T00:27:54.812Z,20.90
2023-07-24T00:28:56.580Z,20.89
2023-07-24T00:29:58.386Z,20.85
2023-07-24T00:31:00.428Z,20.86
2023-07-24T00:32:02.283Z,20.86
2023-07-24T00:33:04.171Z,20.88
2023-07-24T00:34:06.027Z,20.89
2023-07-24T00:35:08.260Z,20.89
2023-07-24T00:36:10.184Z,20.88
2023-07-24T00:37:12.084Z,20.89
2023-07-24T00:38:13.953Z,20.82
2023-07-24T00:39:16.057Z,20.80
2023-07-24T00:40:17.952Z,20.82
2023-07-24T00:41:20.183Z,20.82
2023-07-24T00:42:22.365Z,20.83
2023-07-24T00:43:24.598Z,20.86
2023-07-24T00:44:26.364Z,20.87
2023-07-24T00:45:28.140Z,20.86
2023-07-24T00:46:34.289Z,20.85
2023-07-24T00:47:36.378Z,20.82
2023-07-24T00:48:38.782Z,20.79
2023-07-24T00:49:40.867Z,20.77
2023-07-24T00:50:46.958Z,20.76
2023-07-24T00:51:49.341Z,20.78
2023-07-24T00:52:51.193Z,20.78
2023-07-24T00:53:53.022Z,20.78
2023-07-24T00:54:55.013Z,20.77
2023-07-24T00:55:56.898Z,20.78
2023-07-24T00:56:58.726Z,20.75
2023-07-24T00:58:01.444Z,20.74
2023-07-24T00:59:03.298Z,20.72
2023-07-24T01:00:05.496Z,20.74
2023-07-24T01:01:07.368Z,20.75
2023-07-24T01:02:09.342Z,20.74
2023-07-24T01:03:11.259Z,20.74
2023-07-24T01:04:13.214Z,20.76
2023-07-24T01:05:16.148Z,20.76
2023-07-24T01:06:17.950Z,20.78
2023-07-24T01:07:19.766Z,20.73
2023-07-24T01:08:21.806Z,20.67
2023-07-24T01:09:23.653Z,20.65
2023-07-24T01:10:25.716Z,20.65
2023-07-24T01:11:34.660Z,20.67
2023-07-24T01:12:48.707Z,20.68
2023-07-24T01:13:57.407Z,20.67
2023-07-24T01:15:12.688Z,20.68
2023-07-24T01:16:15.891Z,20.69
2023-07-24T01:17:22.201Z,20.69
2023-07-24T01:18:25.474Z,20.69
2023-07-24T01:19:43.660Z,20.69
2023-07-24T01:20:56.775Z,20.69
2023-07-24T01:22:21.620Z,20.64
2023-07-24T01:23:42.007Z,20.63
2023-07-24T01:25:00.179Z,20.62
2023-07-24T01:26:05.659Z,20.64
2023-07-24T01:27:08.606Z,20.63
2023-07-24T01:28:10.761Z,20.63
2023-07-24T01:29:12.498Z,20.63
2023-07-24T01:30:17.876Z,20.62
2023-07-24T01:31:19.560Z,20.58
2023-07-24T01:32:21.982Z,20.60
2023-07-24T01:33:24.050Z,20.62
2023-07-24T01:34:25.980Z,20.62
2023-07-24T01:35:29.077Z,20.60
2023-07-24T01:36:31.043Z,20.57
2023-07-24T01:37:35.267Z,20.54
2023-07-24T01:38:37.940Z,20.58
2023-07-24T01:39:41.707Z,20.61
2023-07-24T01:40:44.151Z,20.62
2023-07-24T01:41:46.355Z,20.63
2023-07-24T01:42:48.854Z,20.57
2023-07-24T01:43:50.611Z,20.55
2023-07-24T01:44:53.226Z,20.55
2023-07-24T01:45:55.347Z,20.50
2023-07-24T01:46:57.273Z,20.48
2023-07-24T01:47:59.489Z,20.49
2023-07-24T01:49:01.353Z,20.47
2023-07-24T01:50:03.278Z,20.46
2023-07-24T01:51:05.081Z,20.40
2023-07-24T01:52:07.030Z,20.38
2023-07-24T01:53:08.907Z,20.37
2023-07-24T01:54:10.748Z,20.35
2023-07-24T01:55:12.480Z,20.33
2023-07-24T01:56:14.293Z,20.30
2023-07-24T01:57:16.276Z,20.29
2023-07-24T01:58:18.117Z,20.30
2023-07-24T01:59:19.920Z,20.33
2023-07-24T02:00:21.744Z,20.36
2023-07-24T02:01:23.620Z,20.38
2023-07-24T02:02:25.612Z,20.39
2023-07-24T02:03:27.491Z,20.39
2023-07-24T02:04:29.417Z,20.34
2023-07-24T02:05:31.907Z,20.32
2023-07-24T02:06:33.737Z,20.27
2023-07-24T02:07:35.756Z,20.22
2023-07-24T02:08:37.565Z,20.23
2023-07-24T02:09:39.431Z,20.26
2023-07-24T02:10:41.168Z,20.26
2023-07-24T02:11:43.237Z,20.26
2023-07-24T02:12:45.149Z,20.29
2023-07-24T02:13:47.363Z,20.30
2023-07-24T02:14:52.903Z,20.32
2023-07-24T02:15:55.495Z,20.35
2023-07-24T02:16:57.987Z,20.38
2023-07-24T02:17:59.785Z,20.37
2023-07-24T02:19:01.655Z,20.41
2023-07-24T02:20:03.508Z,20.43
2023-07-24T02:21:05.262Z,20.44
2023-07-24T02:22:07.083Z,20.41
2023-07-24T02:23:10.297Z,20.37
2023-07-24T02:24:12.471Z,20.37
2023-07-24T02:25:14.293Z,20.39
2023-07-24T02:26:16.075Z,20.41
2023-07-24T02:27:32.481Z,20.42
2023-07-24T02:28:34.417Z,20.43
2023-07-24T02:29:37.490Z,20.45
2023-07-24T02:30:40.094Z,20.47
2023-07-24T02:31:42.048Z,20.45
2023-07-24T02:32:43.899Z,20.39
2023-07-24T02:33:45.658Z,20.38
2023-07-24T02:34:47.622Z,20.40
2023-07-24T02:35:50.528Z,20.39
2023-07-24T02:36:52.263Z,20.38
2023-07-24T02:37:54.020Z,20.36
2023-07-24T02:38:55.800Z,20.35
2023-07-24T02:39:57.581Z,20.37
2023-07-24T02:40:59.449Z,20.41
2023-07-24T02:42:01.309Z,20.42
2023-07-24T02:43:03.127Z,20.42
2023-07-24T02:44:05.404Z,20.44
2023-07-24T02:45:12.402Z,20.46
2023-07-24T02:46:14.705Z,20.45
2023-07-24T02:47:16.531Z,20.41
2023-07-24T02:48:18.318Z,20.39
2023-07-24T02:49:20.090Z,20.40
2023-07-24T02:50:21.874Z,20.38
2023-07-24T02:51:23.673Z,20.36
2023-07-24T02:52:25.540Z,20.37
2023-07-24T02:53:27.282Z,20.36
2023-07-24T02:54:29.006Z,20.37
2023-07-24T02:55:30.767Z,20.37
2023-07-24T02:56:32.672Z,20.38
2023-07-24T02:57:34.714Z,20.38
2023-07-24T02:58:36.532Z,20.39
2023-07-24T02:59:38.438Z,20.38
2023-07-24T03:00:40.370Z,20.33
2023-07-24T03:01:42.164Z,20.32
2023-07-24T03:02:43.996Z,20.35
2023-07-24T03:03:45.980Z,20.38
2023-07-24T03:04:47.720Z,20.38
2023-07-24T03:05:49.911Z,20.34
2023-07-24T03:06:51.658Z,20.32
2023-07-24T03:07:53.834Z,20.29
2023-07-24T03:08:55.813Z,20.30
2023-07-24T03:09:57.674Z,20.30
2023-07-24T03:11:00.937Z,20.32
2023-07-24T03:12:02.720Z,20.30
2023-07-24T03:13:04.544Z,20.26
2023-07-24T03:14:06.748Z,20.25
2023-07-24T03:15:09.125Z,20.25
2023-07-24T03:16:10.969Z,20.26
2023-07-24T03:17:12.763Z,20.28
2023-07-24T03:18:14.704Z,20.31
2023-07-24T03:19:18.825Z,20.32
2023-07-24T03:20:21.352Z,20.33
2023-07-24T03:21:23.207Z,20.32
2023-07-24T03:22:25.073Z,20.32
2023-07-24T03:23:27.032Z,20.33
2023-07-24T03:24:29.441Z,20.30
2023-07-24T03:25:32.882Z,20.31
2023-07-24T03:26:34.717Z,20.29
2023-07-24T03:27:36.547Z,20.27
2023-07-24T03:28:38.375Z,20.26
2023-07-24T03:29:42.245Z,20.21
2023-07-24T03:30:44.269Z,20.19
2023-07-24T03:31:46.059Z,20.14
2023-07-24T03:32:47.843Z,20.13
2023-07-24T03:33:49.620Z,20.12
2023-07-24T03:34:51.481Z,20.09
2023-07-24T03:35:53.244Z,20.11
2023-07-24T03:36:54.957Z,20.07
2023-07-24T03:37:56.733Z,20.06
2023-07-24T03:38:58.607Z,20.03
2023-07-24T03:40:00.422Z,20.05
2023-07-24T03:41:02.344Z,20.05
2023-07-24T03:42:04.235Z,20.09
2023-07-24T03:43:06.009Z,20.09
2023-07-24T03:44:07.806Z,20.06
2023-07-24T03:45:09.855Z,20.06
2023-07-24T03:46:11.703Z,20.07
2023-07-24T03:47:13.498Z,20.07
2023-07-24T03:48:15.354Z,20.09
2023-07-24T03:49:17.233Z,20.10
2023-07-24T03:50:18.963Z,20.07
2023-07-24T03:51:20.685Z,20.09
2023-07-24T03:52:22.451Z,20.11
2023-07-24T03:53:24.159Z,20.10
2023-07-24T03:54:25.979Z,20.12
2023-07-24T03:55:27.875Z,20.12
2023-07-24T03:56:30.982Z,20.11
2023-07-24T03:57:33.265Z,20.12
2023-07-24T03:58:35.094Z,20.10
2023-07-24T03:59:37.207Z,20.10
2023-07-24T04:00:38.954Z,20.11
2023-07-24T04:01:40.724Z,20.12
2023-07-24T04:02:42.719Z,20.11
2023-07-24T04:03:44.518Z,20.13
2023-07-24T04:04:46.376Z,20.11
2023-07-24T04:05:48.298Z,20.07
2023-07-24T04:06:50.093Z,20.04
2023-07-24T04:07:52.048Z,20.06
2023-07-24T04:08:53.831Z,20.06
2023-07-24T04:09:55.637Z,20.07
2023-07-24T04:10:57.739Z,20.04
2023-07-24T04:11:59.695Z,20.03
2023-07-24T04:13:01.463Z,20.05
2023-07-24T04:14:03.217Z,20.07
2023-07-24T04:15:05.238Z,20.05
2023-07-24T04:16:07.191Z,20.05
2023-07-24T04:17:08.962Z,20.05
2023-07-24T04:18:11.245Z,20.05
2023-07-24T04:19:13.134Z,20.02
2023-07-24T04:20:14.953Z,19.98
2023-07-24T04:21:16.792Z,19.99
2023-07-24T04:22:18.567Z,19.99
2023-07-24T04:23:20.437Z,20.00
2023-07-24T04:24:22.225Z,19.98
2023-07-24T04:25:24.016Z,20.00
2023-07-24T04:26:25.781Z,19.99
2023-07-24T04:27:27.675Z,19.96
2023-07-24T04:28:29.566Z,19.93
2023-07-24T04:29:31.394Z,19.90
2023-07-24T04:30:33.906Z,19.91
2023-07-24T04:31:35.720Z,19.93
2023-07-24T04:32:37.547Z,19.95
2023-07-24T04:33:40.036Z,19.96
2023-07-24T04:34:41.879Z,19.98
2023-07-24T04:35:43.828Z,19.99
2023-07-24T04:36:45.711Z,20.01
2023-07-24T04:37:47.509Z,19.98
2023-07-24T04:38:49.267Z,19.97
2023-07-24T04:39:51.154Z,19.95
2023-07-24T04:40:52.988Z,19.94
2023-07-24T04:41:54.754Z,19.94
2023-07-24T04:42:56.607Z,19.96
2023-07-24T04:43:58.529Z,20.02
2023-07-24T04:45:00.362Z,20.04
2023-07-24T04:46:02.160Z,20.04
2023-07-24T04:47:04.075Z,20.05
2023-07-24T04:48:06.495Z,20.06
2023-07-24T04:49:08.239Z,20.04
2023-07-24T04:50:10.163Z,20.01
2023-07-24T04:51:12.017Z,19.99
2023-07-24T04:52:13.786Z,19.97
2023-07-24T04:53:15.600Z,20.00
2023-07-24T04:54:17.826Z,20.01
2023-07-24T04:55:19.582Z,20.04
2023-07-24T04:56:21.325Z,20.02
2023-07-24T04:57:23.193Z,20.01
2023-07-24T04:58:25.426Z,20.03
2023-07-24T04:59:27.299Z,20.02
2023-07-24T05:00:29.095Z,20.01
2023-07-24T05:01:30.884Z,20.02
2023-07-24T05:02:32.683Z,20.03
2023-07-24T05:03:34.450Z,20.04
2023-07-24T05:04:36.226Z,20.03
2023-07-24T05:05:45.086Z,20.04
2023-07-24T05:06:48.265Z,20.08
2023-07-24T05:07:50.002Z,20.08
2023-07-24T05:08:51.817Z,20.08
2023-07-24T05:09:53.713Z,20.08
2023-07-24T05:10:58.869Z,20.06
2023-07-24T05:12:00.663Z,20.05
2023-07-24T05:13:02.523Z,20.04
2023-07-24T05:14:04.270Z,20.01
2023-07-24T05:15:06.309Z,19.99
2023-07-24T05:16:08.230Z,19.99
2023-07-24T05:17:10.009Z,20.01
2023-07-24T05:18:11.779Z,20.02
2023-07-24T05:19:13.726Z,20.03
2023-07-24T05:20:15.701Z,20.05
2023-07-24T05:21:17.666Z,20.09
2023-07-24T05:22:19.482Z,20.12
2023-07-24T05:23:21.315Z,20.12
2023-07-24T05:24:23.140Z,20.12
2023-07-24T05:25:25.010Z,20.14
2023-07-24T05:26:26.867Z,20.15
2023-07-24T05:27:28.652Z,20.17
2023-07-24T05:28:31.184Z,20.16
2023-07-24T05:29:33.566Z,20.17
2023-07-24T05:30:35.592Z,20.18
2023-07-24T05:31:37.832Z,20.19
2023-07-24T05:32:39.638Z,20.18
2023-07-24T05:33:41.409Z,20.19
2023-07-24T05:34:45.255Z,20.19
2023-07-24T05:35:49.569Z,20.18
2023-07-24T05:36:51.368Z,20.18
2023-07-24T05:37:53.159Z,20.21
2023-07-24T05:38:55.000Z,20.21
2023-07-24T05:39:56.818Z,20.22
2023-07-24T05:41:02.825Z,20.25
2023-07-24T05:42:05.192Z,20.28
2023-07-24T05:43:07.026Z,20.28
2023-07-24T05:44:09.176Z,20.29
2023-07-24T05:45:12.650Z,20.29
2023-07-24T05:46:14.571Z,20.30
2023-07-24T05:47:16.526Z,20.31
2023-07-24T05:48:18.435Z,20.31
2023-07-24T05:49:20.262Z,20.31
2023-07-24T05:50:22.018Z,20.33
2023-07-24T05:51:23.948Z,20.36
2023-07-24T05:52:25.767Z,20.39
2023-07-24T05:53:27.464Z,20.41
2023-07-24T05:54:29.236Z,20.40
2023-07-24T05:55:31.368Z,20.41
2023-07-24T05:56:33.275Z,20.41
2023-07-24T05:57:35.392Z,20.45
2023-07-24T05:58:37.197Z,20.49
2023-07-24T05:59:38.955Z,20.52
2023-07-24T06:00:40.797Z,20.54
2023-07-24T06:01:42.605Z,20.56
2023-07-24T06:02:45.148Z,20.61
2023-07-24T06:03:46.964Z,20.63
2023-07-24T06:04:48.702Z,20.66
2023-07-24T06:05:54.519Z,20.68
2023-07-24T06:06:56.378Z,20.71
2023-07-24T06:07:58.160Z,20.72
2023-07-24T06:09:00.041Z,20.75
2023-07-24T06:10:01.893Z,20.80
2023-07-24T06:11:03.664Z,20.84
2023-07-24T06:12:05.653Z,20.84
2023-07-24T06:13:07.422Z,20.87
2023-07-24T06:14:09.217Z,20.90
2023-07-24T06:15:11.134Z,20.92
2023-07-24T06:16:15.507Z,20.94
2023-07-24T06:17:17.436Z,20.95
2023-07-24T06:18:19.397Z,20.97
2023-07-24T06:19:21.383Z,21.00
2023-07-24T06:20:23.173Z,21.04
2023-07-24T06:21:24.929Z,21.07
2023-07-24T06:22:26.677Z,21.08
2023-07-24T06:23:28.424Z,21.11
2023-07-24T06:24:30.312Z,21.13
2023-07-24T06:25:32.874Z,21.18
2023-07-24T06:26:34.745Z,21.19
2023-07-24T06:27:36.559Z,21.20
2023-07-24T06:28:38.354Z,21.23
2023-07-24T06:29:40.301Z,21.27
2023-07-24T06:30:42.682Z,21.31
2023-07-24T06:31:44.726Z,21.33
2023-07-24T06:32:46.726Z,21.36
2023-07-24T06:33:48.960Z,21.39
2023-07-24T06:34:50.663Z,21.42
2023-07-24T06:35:52.662Z,21.42
2023-07-24T06:36:54.697Z,21.44
2023-07-24T06:37:58.042Z,21.48
2023-07-24T06:38:59.852Z,21.51
2023-07-24T06:40:01.663Z,21.55
2023-07-24T06:41:04.381Z,21.60
2023-07-24T06:42:06.299Z,21.62
2023-07-24T06:43:08.091Z,21.65
2023-07-24T06:44:09.916Z,21.67
2023-07-24T06:45:11.713Z,21.71
2023-07-24T06:46:13.538Z,21.72
2023-07-24T06:47:15.304Z,21.74
2023-07-24T06:48:17.157Z,21.78
2023-07-24T06:49:18.981Z,21.81
2023-07-24T06:50:20.816Z,21.84
2023-07-24T06:51:22.736Z,21.86
2023-07-24T06:52:24.613Z,21.87
2023-07-24T06:53:26.536Z,21.90
2023-07-24T06:54:28.347Z,21.94
2023-07-24T06:55:30.090Z,21.96
2023-07-24T06:56:32.363Z,22.00
2023-07-24T06:57:34.808Z,22.03
2023-07-24T06:58:36.836Z,22.05
2023-07-24T06:59:38.629Z,22.07
2023-07-24T07:00:40.367Z,22.10
2023-07-24T07:01:42.161Z,22.14
2023-07-24T07:02:44.166Z,22.17
2023-07-24T07:03:45.992Z,22.23
2023-07-24T07:04:47.874Z,22.27
2023-07-24T07:05:49.719Z,22.30
2023-07-24T07:06:51.880Z,22.34
2023-07-24T07:07:53.846Z,22.37
2023-07-24T07:08:55.812Z,22.40
2023-07-24T07:09:57.787Z,22.42
2023-07-24T07:11:00.615Z,22.46
2023-07-24T07:12:02.515Z,22.49
2023-07-24T07:13:04.399Z,22.53
2023-07-24T07:14:06.326Z,22.57
2023-07-24T07:15:08.740Z,22.61
2023-07-24T07:16:10.581Z,22.65
2023-07-24T07:17:12.503Z,22.68
2023-07-24T07:18:15.630Z,22.72
2023-07-24T07:19:18.074Z,22.76
2023-07-24T07:20:20.110Z,22.80
2023-07-24T07:21:22.014Z,22.83
2023-07-24T07:22:23.753Z,22.84
2023-07-24T07:23:25.624Z,22.87
2023-07-24T07:24:27.484Z,22.88
2023-07-24T07:25:29.377Z,22.92
2023-07-24T07:26:31.585Z,22.97
2023-07-24T07:27:33.831Z,22.99
2023-07-24T07:28:35.570Z,23.03
2023-07-24T07:29:37.399Z,23.05
2023-07-24T07:30:41.001Z,23.08
2023-07-24T07:31:43.313Z,23.11
2023-07-24T07:32:45.266Z,23.13
2023-07-24T07:33:47.051Z,23.17
2023-07-24T07:34:48.824Z,23.17
2023-07-24T07:35:50.679Z,23.17
2023-07-24T07:36:52.534Z,23.20
2023-07-24T07:37:54.301Z,23.22
2023-07-24T07:38:56.090Z,23.25
2023-07-24T07:39:57.840Z,23.25
2023-07-24T07:40:59.821Z,23.28
2023-07-24T07:43:09.791Z,23.36
2023-07-24T07:44:11.551Z,23.37
2023-07-24T07:45:13.350Z,23.39
2023-07-24T07:46:15.948Z,23.44
2023-07-24T07:47:17.660Z,23.47
2023-07-24T07:48:19.466Z,23.51
2023-07-24T07:49:21.169Z,23.53
2023-07-24T07:50:23.044Z,23.55
2023-07-24T07:51:27.013Z,23.57
2023-07-24T07:52:28.726Z,23.60
2023-07-24T07:53:30.619Z,23.62
2023-07-24T07:54:32.371Z,23.65
2023-07-24T07:55:34.178Z,23.69
2023-07-24T07:56:36.011Z,23.73
2023-07-24T07:57:38.185Z,23.79
2023-07-24T07:58:39.912Z,23.81
2023-07-24T07:59:41.710Z,23.83
2023-07-24T08:00:43.602Z,23.88
2023-07-24T08:01:47.226Z,23.92
2023-07-24T08:02:49.413Z,23.96
2023-07-24T08:03:51.280Z,23.98
2023-07-24T08:04:53.107Z,23.99
2023-07-24T08:05:57.907Z,24.01
2023-07-24T08:06:59.767Z,24.04
2023-07-24T08:08:01.483Z,24.06
2023-07-24T08:09:03.411Z,24.11
2023-07-24T08:10:05.598Z,24.13
2023-07-24T08:11:07.685Z,24.17
2023-07-24T08:12:09.676Z,24.21
2023-07-24T08:13:11.550Z,24.23
2023-07-24T08:14:13.393Z,24.26
2023-07-24T08:15:15.236Z,24.29
2023-07-24T08:16:19.909Z,24.34
2023-07-24T08:17:22.464Z,24.37
2023-07-24T08:18:24.742Z,24.43
2023-07-24T08:19:29.148Z,24.48
2023-07-24T08:20:30.909Z,24.52
2023-07-24T08:21:32.724Z,24.55
2023-07-24T08:22:34.646Z,24.58
2023-07-24T08:23:36.413Z,24.62
2023-07-24T08:24:38.275Z,24.65
2023-07-24T08:25:40.134Z,24.68
2023-07-24T08:26:41.981Z,24.68
2023-07-24T08:28:00.644Z,24.69
2023-07-24T08:29:07.170Z,24.70
2023-07-24T08:30:08.971Z,24.70
2023-07-24T08:31:11.301Z,24.72
2023-07-24T08:32:14.400Z,24.76
2023-07-24T08:33:16.346Z,24.79
2023-07-24T08:34:18.185Z,24.83
2023-07-24T08:35:19.913Z,24.85
2023-07-24T08:36:21.788Z,24.87
2023-07-24T08:37:23.537Z,24.90
2023-07-24T08:38:25.945Z,24.97
2023-07-24T08:39:27.730Z,25.00
2023-07-24T08:40:29.526Z,25.05
2023-07-24T08:41:33.836Z,25.09
2023-07-24T08:42:35.758Z,25.11
2023-07-24T08:43:38.331Z,25.13
2023-07-24T08:44:40.402Z,25.15
2023-07-24T08:45:42.181Z,25.18
2023-07-24T08:46:47.209Z,25.21
2023-07-24T08:47:49.913Z,25.27
2023-07-24T08:48:52.539Z,25.32
2023-07-24T08:49:55.435Z,25.36
2023-07-24T08:50:57.412Z,25.40
2023-07-24T08:52:01.617Z,25.46
2023-07-24T08:53:04.149Z,25.50
2023-07-24T08:54:06.084Z,25.52
2023-07-24T08:55:08.041Z,25.56
2023-07-24T08:56:11.057Z,25.61
2023-07-24T08:57:13.584Z,25.64
2023-07-24T08:58:15.402Z,25.69
2023-07-24T08:59:17.341Z,25.74
2023-07-24T09:00:19.310Z,25.72
2023-07-24T09:01:21.564Z,25.72
2023-07-24T09:02:23.357Z,25.73
2023-07-24T09:03:25.717Z,25.77
2023-07-24T09:04:27.794Z,25.81
2023-07-24T09:05:29.604Z,25.86
2023-07-24T09:06:31.971Z,25.93
2023-07-24T09:07:34.335Z,25.97
2023-07-24T09:08:36.027Z,26.00
2023-07-24T09:09:37.929Z,26.02
2023-07-24T09:10:40.213Z,26.06
2023-07-24T09:11:52.447Z,26.10
2023-07-24T09:12:54.232Z,26.18
2023-07-24T09:13:56.051Z,26.25
2023-07-24T09:15:05.768Z,26.27
2023-07-24T09:16:08.917Z,26.30
2023-07-24T09:17:11.774Z,26.37
2023-07-24T09:18:13.645Z,26.41
2023-07-24T09:19:26.668Z,26.45
2023-07-24T09:20:38.762Z,26.46
2023-07-24T09:21:40.479Z,26.52
2023-07-24T09:23:10.498Z,26.59
2023-07-24T09:24:15.713Z,26.65
2023-07-24T09:25:17.543Z,26.70
2023-07-24T09:26:19.378Z,26.70
2023-07-24T09:27:21.827Z,26.69
2023-07-24T09:28:23.749Z,26.68
2023-07-24T09:29:31.808Z,26.69
2023-07-24T09:30:33.601Z,26.67
2023-07-24T09:31:36.832Z,26.65
2023-07-24T09:32:39.417Z,26.66
2023-07-24T09:33:41.888Z,26.64
2023-07-24T09:34:44.005Z,26.63
2023-07-24T09:35:45.908Z,26.63
2023-07-24T09:36:47.861Z,26.62
2023-07-24T09:37:49.690Z,26.64
2023-07-24T09:39:01.407Z,26.62
2023-07-24T09:40:06.621Z,26.64
2023-07-24T09:41:08.437Z,26.64
2023-07-24T09:42:11.056Z,26.67
2023-07-24T09:43:37.181Z,26.70
2023-07-24T09:44:40.425Z,26.73
2023-07-24T09:45:45.937Z,26.76
2023-07-24T09:48:07.911Z,26.79
2023-07-24T09:49:11.915Z,26.83
2023-07-24T09:50:14.402Z,26.86
2023-07-24T09:51:16.522Z,26.85
2023-07-24T09:52:19.330Z,26.87
2023-07-24T09:53:39.561Z,26.90
2023-07-24T09:54:49.674Z,26.93
2023-07-24T09:56:04.853Z,26.96
2023-07-24T09:57:19.335Z,26.98
2023-07-24T09:58:24.534Z,26.99
2023-07-24T09:59:27.990Z,27.02
2023-07-24T10:00:30.354Z,27.04
2023-07-24T10:01:33.539Z,27.04
2023-07-24T10:02:36.628Z,27.05
2023-07-24T10:03:43.883Z,27.07
2023-07-24T10:04:47.997Z,27.10
2023-07-24T10:05:50.056Z,27.09
2023-07-24T10:06:52.669Z,27.10
2023-07-24T10:07:54.632Z,27.11
2023-07-24T10:08:56.665Z,27.11
2023-07-24T10:09:59.216Z,27.13
2023-07-24T10:11:01.012Z,27.15
2023-07-24T10:12:02.928Z,27.18
2023-07-24T10:13:05.206Z,27.20
2023-07-24T10:14:07.151Z,27.20
2023-07-24T10:15:09.267Z,27.21
2023-07-24T10:16:11.245Z,27.24
2023-07-24T10:17:13.005Z,27.25
2023-07-24T10:18:16.441Z,27.27
2023-07-24T10:19:18.340Z,27.27
2023-07-24T10:20:20.706Z,27.28
2023-07-24T10:21:28.242Z,27.29
2023-07-24T10:22:30.092Z,27.30
2023-07-24T10:23:32.184Z,27.31
2023-07-24T10:24:41.945Z,27.34
2023-07-24T10:25:45.797Z,27.36
2023-07-24T10:26:47.810Z,27.37
2023-07-24T10:27:50.632Z,27.40
2023-07-24T10:28:52.514Z,27.43
2023-07-24T10:30:14.886Z,27.45
2023-07-24T10:31:28.590Z,27.48
2023-07-24T10:32:30.871Z,27.53
2023-07-24T10:33:33.304Z,27.54
2023-07-24T10:34:41.943Z,27.57
2023-07-24T10:35:45.572Z,27.61
2023-07-24T10:36:47.434Z,27.63
2023-07-24T10:37:49.209Z,27.64
2023-07-24T10:38:55.428Z,27.66
2023-07-24T10:39:57.193Z,27.68
2023-07-24T10:41:03.524Z,27.70
2023-07-24T10:42:11.827Z,27.69
2023-07-24T10:43:15.476Z,27.71
2023-07-24T10:44:17.393Z,27.70
2023-07-24T10:45:19.194Z,27.69
2023-07-24T10:46:22.308Z,27.65
2023-07-24T10:47:24.282Z,27.65
2023-07-24T10:48:26.891Z,27.69
2023-07-24T10:49:28.589Z,27.72
2023-07-24T10:50:37.559Z,27.77
2023-07-24T10:51:39.447Z,27.81
2023-07-24T10:52:42.328Z,27.83
2023-07-24T10:53:48.127Z,27.86
2023-07-24T10:54:52.016Z,27.92
2023-07-24T10:55:53.821Z,28.00
2023-07-24T10:56:59.871Z,28.08
2023-07-24T10:58:01.588Z,28.14
2023-07-24T10:59:04.151Z,28.18
2023-07-24T11:00:06.326Z,28.24
2023-07-24T11:01:09.471Z,28.31
2023-07-24T11:02:11.561Z,28.42
2023-07-24T11:03:13.978Z,28.50
2023-07-24T11:04:15.782Z,28.57
2023-07-24T11:05:17.655Z,28.60
2023-07-24T11:06:20.322Z,28.63
2023-07-24T11:07:22.087Z,28.70
2023-07-24T11:08:23.897Z,28.75
2023-07-24T11:09:35.536Z,28.79
2023-07-24T11:10:37.457Z,28.85
2023-07-24T11:11:39.212Z,28.92
2023-07-24T11:12:40.981Z,28.94
2023-07-24T11:13:42.897Z,28.96
2023-07-24T11:14:51.307Z,28.95
2023-07-24T11:15:53.926Z,28.94
2023-07-24T11:16:55.736Z,28.93
2023-07-24T11:17:57.518Z,28.96
2023-07-24T11:18:59.328Z,28.98
2023-07-24T11:20:11.743Z,29.00
2023-07-24T11:21:13.757Z,28.99
2023-07-24T11:22:15.892Z,28.95
2023-07-24T11:23:17.843Z,28.99
2023-07-24T11:24:19.832Z,29.17
2023-07-24T11:25:21.643Z,29.36
2023-07-24T11:26:25.004Z,29.48
2023-07-24T11:27:26.857Z,29.53
2023-07-24T11:28:28.592Z,29.60
2023-07-24T11:29:33.794Z,29.69
2023-07-24T11:30:36.087Z,29.83
2023-07-24T11:31:38.963Z,29.95
2023-07-24T11:32:42.197Z,29.97
2023-07-24T11:33:44.872Z,30.00
2023-07-24T11:34:48.038Z,30.09
2023-07-24T11:35:49.900Z,30.25
2023-07-24T11:36:51.855Z,30.39
2023-07-24T11:37:53.865Z,30.55
2023-07-24T11:38:55.951Z,30.71
2023-07-24T11:39:58.631Z,30.81
2023-07-24T11:41:00.452Z,30.93
2023-07-24T11:42:02.565Z,31.01
2023-07-24T11:43:04.812Z,31.07
2023-07-24T11:44:06.851Z,31.10
2023-07-24T11:45:11.250Z,31.05
2023-07-24T11:46:13.097Z,30.97
2023-07-24T11:47:14.981Z,30.84
2023-07-24T11:48:16.929Z,30.72
2023-07-24T11:49:19.787Z,30.60
2023-07-24T11:50:22.438Z,30.53
2023-07-24T11:51:25.993Z,30.41
2023-07-24T11:52:27.896Z,30.34
2023-07-24T11:53:30.906Z,30.29
2023-07-24T11:54:35.059Z,30.26
2023-07-24T11:55:36.829Z,30.23
2023-07-24T11:56:38.740Z,30.28
2023-07-24T11:57:40.664Z,30.41
2023-07-24T11:58:42.503Z,30.57
2023-07-24T11:59:44.402Z,30.59
2023-07-24T12:00:47.673Z,30.58
2023-07-24T12:01:50.126Z,30.55
2023-07-24T12:02:52.529Z,30.49
2023-07-24T12:03:55.124Z,30.45
2023-07-24T12:04:58.519Z,30.42
2023-07-24T12:06:00.344Z,30.40
2023-07-24T12:07:02.202Z,30.37
2023-07-24T12:08:05.058Z,30.29
2023-07-24T12:09:07.948Z,30.22
2023-07-24T12:10:10.344Z,30.14
2023-07-24T12:11:19.830Z,30.11
2023-07-24T12:12:21.756Z,30.12
2023-07-24T12:13:24.192Z,30.04
2023-07-24T12:14:26.991Z,29.97
2023-07-24T12:15:28.923Z,29.91
2023-07-24T12:16:32.301Z,29.87
2023-07-24T12:17:34.010Z,29.84
2023-07-24T12:18:36.603Z,29.83
2023-07-24T12:19:38.717Z,29.80
2023-07-24T12:20:41.353Z,29.76
2023-07-24T12:21:43.236Z,29.70
2023-07-24T12:22:45.176Z,29.66
2023-07-24T12:23:47.076Z,29.60
2023-07-24T12:24:49.019Z,29.52
2023-07-24T12:25:50.946Z,29.45
2023-07-24T12:26:52.684Z,29.43
2023-07-24T12:27:54.889Z,29.35
2023-07-24T12:28:56.769Z,29.32
2023-07-24T12:29:58.740Z,29.29
2023-07-24T12:31:00.503Z,29.27
2023-07-24T12:32:02.416Z,29.28
2023-07-24T12:33:04.242Z,29.26
2023-07-24T12:34:06.027Z,29.23
2023-07-24T12:35:08.985Z,29.22
2023-07-24T12:36:10.983Z,29.18
2023-07-24T12:37:12.806Z,29.18
2023-07-24T12:38:14.811Z,29.16
2023-07-24T12:39:16.638Z,29.15
2023-07-24T12:40:18.377Z,29.14
2023-07-24T12:41:20.100Z,29.15
2023-07-24T12:42:21.898Z,29.14
2023-07-24T12:43:23.739Z,29.11
2023-07-24T12:44:27.461Z,29.12
2023-07-24T12:45:29.224Z,29.17
2023-07-24T12:46:31.133Z,29.18
2023-07-24T12:47:33.917Z,29.22
2023-07-24T12:48:37.321Z,29.27
2023-07-24T12:49:39.422Z,29.31
2023-07-24T12:50:41.202Z,29.36
2023-07-24T12:51:42.923Z,29.44
2023-07-24T12:52:44.766Z,29.50
2023-07-24T12:53:57.341Z,29.50
2023-07-24T12:55:02.576Z,29.49
2023-07-24T12:56:04.809Z,29.45
2023-07-24T12:57:06.827Z,29.40
2023-07-24T12:58:08.583Z,29.38
2023-07-24T12:59:10.375Z,29.39
2023-07-24T13:00:12.464Z,29.50
2023-07-24T13:01:14.589Z,29.66
2023-07-24T13:02:16.538Z,29.82
2023-07-24T13:03:18.511Z,30.00
2023-07-24T13:04:24.120Z,30.18
2023-07-24T13:05:25.970Z,30.34
2023-07-24T13:06:28.380Z,30.45
2023-07-24T13:07:30.684Z,30.56
2023-07-24T13:08:32.449Z,30.65
2023-07-24T13:09:34.261Z,30.69
2023-07-24T13:10:36.184Z,30.73
2023-07-24T13:11:37.944Z,30.88
2023-07-24T13:12:39.698Z,31.02
2023-07-24T13:13:41.574Z,31.09
2023-07-24T13:14:43.881Z,31.20
2023-07-24T13:15:45.692Z,31.25
2023-07-24T13:16:47.793Z,31.22
2023-07-24T13:17:49.786Z,31.17
2023-07-24T13:18:51.690Z,31.13
2023-07-24T13:19:53.441Z,31.12
2023-07-24T13:20:55.238Z,31.17
2023-07-24T13:21:57.055Z,31.23
2023-07-24T13:22:58.925Z,31.19
2023-07-24T13:24:00.676Z,31.25
2023-07-24T13:25:02.547Z,31.33
2023-07-24T13:26:04.870Z,31.42
2023-07-24T13:27:06.910Z,31.48
2023-07-24T13:28:08.791Z,31.52
2023-07-24T13:29:10.657Z,31.55
2023-07-24T13:30:12.618Z,31.67